createdAt,value
2023-03-19T00:02:20.628Z,14.37
2023-03-19T00:04:49.566Z,14.26
2023-03-19T00:07:17.392Z,14.32
2023-03-19T00:09:48.213Z,14.37
2023-03-19T00:12:16.169Z,14.33
2023-03-19T00:14:43.980Z,14.35
2023-03-19T00:17:11.782Z,14.38
2023-03-19T00:19:39.706Z,14.33
2023-03-19T00:22:07.546Z,14.31
2023-03-19T00:24:35.597Z,14.24
2023-03-19T00:27:04.779Z,14.12
2023-03-19T00:29:32.730Z,14.13
2023-03-19T00:32:00.390Z,14.10
2023-03-19T00:34:28.184Z,14.19
2023-03-19T00:36:56.495Z,14.21
2023-03-19T00:39:24.184Z,14.11
2023-03-19T00:41:51.897Z,14.03
2023-03-19T00:44:20.934Z,14.16
2023-03-19T00:46:48.621Z,14.18
2023-03-19T00:49:16.382Z,14.19
2023-03-19T00:51:45.871Z,14.11
2023-03-19T00:54:15.228Z,14.04
2023-03-19T00:56:42.928Z,14.02
2023-03-19T00:59:10.859Z,14.02
2023-03-19T01:01:39.971Z,13.96
2023-03-19T01:04:07.847Z,14.08
2023-03-19T01:06:35.634Z,14.01
2023-03-19T01:09:03.416Z,13.96
2023-03-19T01:11:32.266Z,13.95
2023-03-19T01:14:00.041Z,14.01
2023-03-19T01:16:27.865Z,13.93
2023-03-19T01:18:57.173Z,13.93
2023-03-19T01:21:25.066Z,13.97
2023-03-19T01:23:52.756Z,14.02
2023-03-19T01:26:22.122Z,14.02
2023-03-19T01:28:52.996Z,14.05
2023-03-19T01:31:22.806Z,14.02
2023-03-19T01:34:07.402Z,13.91
2023-03-19T01:36:40.935Z,13.99
2023-03-19T01:39:10.560Z,14.03
2023-03-19T01:41:38.388Z,13.93
2023-03-19T01:44:27.885Z,13.99
2023-03-19T01:47:18.348Z,13.88
2023-03-19T01:50:06.833Z,13.77
2023-03-19T01:52:35.811Z,13.88
2023-03-19T01:55:27.881Z,13.97
2023-03-19T01:58:28.805Z,13.86
2023-03-19T02:01:26.934Z,13.82
2023-03-19T02:03:55.636Z,13.75
2023-03-19T02:06:30.238Z,13.67
2023-03-19T02:08:59.029Z,13.41
2023-03-19T02:11:27.993Z,13.52
2023-03-19T02:13:56.460Z,13.53
2023-03-19T02:16:24.588Z,13.42
2023-03-19T02:18:54.247Z,13.34
2023-03-19T02:21:22.584Z,13.25
2023-03-19T02:23:58.364Z,13.47
2023-03-19T02:26:46.075Z,13.58
2023-03-19T02:29:14.529Z,13.56
2023-03-19T02:31:42.724Z,13.53
2023-03-19T02:34:36.245Z,13.70
2023-03-19T02:37:10.309Z,13.74
2023-03-19T02:39:44.896Z,13.74
2023-03-19T02:42:16.143Z,13.67
2023-03-19T02:44:44.219Z,13.63
2023-03-19T02:47:12.886Z,13.64
2023-03-19T02:49:41.747Z,13.44
2023-03-19T02:52:10.731Z,13.54
2023-03-19T02:54:38.746Z,13.34
2023-03-19T02:57:06.949Z,13.30
2023-03-19T02:59:36.364Z,13.44
2023-03-19T03:02:04.548Z,13.40
2023-03-19T03:04:32.929Z,13.48
2023-03-19T03:07:00.844Z,13.35
2023-03-19T03:09:28.897Z,13.44
2023-03-19T03:11:57.128Z,13.32
2023-03-19T03:14:25.204Z,13.19
2023-03-19T03:16:55.178Z,13.37
2023-03-19T03:19:24.099Z,13.27
2023-03-19T03:21:52.162Z,13.03
2023-03-19T03:24:20.237Z,13.19
2023-03-19T03:26:48.547Z,13.28
2023-03-19T03:29:16.723Z,13.26
2023-03-19T03:31:44.673Z,13.20
2023-03-19T03:34:14.042Z,13.12
2023-03-19T03:36:42.147Z,13.09
2023-03-19T03:39:10.005Z,13.11
2023-03-19T03:41:37.955Z,13.15
2023-03-19T03:44:06.747Z,13.13
2023-03-19T03:46:37.009Z,13.15
2023-03-19T03:49:05.023Z,13.16
2023-03-19T03:51:34.750Z,13.15
2023-03-19T03:54:03.956Z,13.18
2023-03-19T03:56:33.254Z,13.19
2023-03-19T03:59:01.926Z,13.05
2023-03-19T04:01:30.075Z,13.12
2023-03-19T04:03:58.147Z,13.13
2023-03-19T04:06:27.412Z,13.09
2023-03-19T04:09:17.202Z,13.14
2023-03-19T04:11:45.351Z,13.18
2023-03-19T04:14:13.266Z,13.06
2023-03-19T04:16:43.374Z,13.08
2023-03-19T04:19:12.004Z,13.08
2023-03-19T04:21:39.917Z,13.23
2023-03-19T04:24:09.866Z,13.14
2023-03-19T04:26:39.390Z,12.99
2023-03-19T04:29:08.426Z,13.11
2023-03-19T04:31:36.828Z,13.18
2023-03-19T04:34:05.854Z,13.13
2023-03-19T04:36:34.069Z,13.20
2023-03-19T04:39:02.165Z,13.17
2023-03-19T04:41:30.342Z,13.21
2023-03-19T04:44:13.530Z,13.13
2023-03-19T04:46:44.603Z,13.11
2023-03-19T04:49:13.382Z,13.25
2023-03-19T04:51:41.980Z,13.14
2023-03-19T04:54:11.016Z,13.29
2023-03-19T04:56:39.105Z,13.15
2023-03-19T04:59:07.117Z,13.20
2023-03-19T05:01:36.465Z,13.27
2023-03-19T05:04:07.298Z,13.08
2023-03-19T05:06:37.780Z,13.18
2023-03-19T05:09:07.613Z,13.20
2023-03-19T05:11:35.906Z,13.12
2023-03-19T05:14:07.089Z,13.18
2023-03-19T05:16:49.031Z,12.96
2023-03-19T05:19:17.686Z,13.09
2023-03-19T05:21:45.619Z,13.16
2023-03-19T05:24:15.460Z,13.07
2023-03-19T05:26:44.069Z,12.96
2023-03-19T05:29:17.662Z,13.03
2023-03-19T05:32:18.999Z,13.07
2023-03-19T05:34:47.818Z,13.05
2023-03-19T05:37:17.074Z,13.01
2023-03-19T05:39:48.475Z,12.92
2023-03-19T05:42:16.710Z,13.01
2023-03-19T05:44:44.778Z,13.01
2023-03-19T05:47:24.782Z,13.11
2023-03-19T05:49:56.610Z,13.03
2023-03-19T05:52:25.168Z,13.05
2023-03-19T05:54:55.558Z,13.03
2023-03-19T05:57:46.618Z,13.13
2023-03-19T06:00:27.186Z,13.10
2023-03-19T06:02:56.876Z,13.14
2023-03-19T06:05:37.404Z,13.12
2023-03-19T06:08:15.535Z,13.06
2023-03-19T06:11:00.110Z,12.94
2023-03-19T06:13:28.930Z,12.98
2023-03-19T06:16:00.017Z,13.04
2023-03-19T06:18:49.714Z,12.96
2023-03-19T06:21:18.316Z,12.93
2023-03-19T06:23:46.397Z,12.83
2023-03-19T06:26:18.249Z,12.90
2023-03-19T06:28:52.435Z,12.64
2023-03-19T06:31:21.363Z,12.60
2023-03-19T06:33:57.105Z,12.65
2023-03-19T06:36:30.925Z,12.50
2023-03-19T06:38:59.461Z,12.44
2023-03-19T06:41:27.429Z,12.34
2023-03-19T06:44:02.285Z,12.44
2023-03-19T06:46:30.225Z,12.38
2023-03-19T06:48:59.529Z,12.43
2023-03-19T06:51:27.781Z,12.43
2023-03-19T06:53:56.670Z,12.48
2023-03-19T06:56:24.833Z,12.42
2023-03-19T06:58:52.835Z,12.41
2023-03-19T07:01:21.718Z,12.42
2023-03-19T07:03:49.802Z,12.31
2023-03-19T07:06:19.142Z,12.45
2023-03-19T07:08:47.132Z,12.50
2023-03-19T07:11:16.403Z,12.43
2023-03-19T07:13:44.512Z,12.36
2023-03-19T07:16:12.459Z,12.32
2023-03-19T07:18:40.715Z,12.25
2023-03-19T07:21:08.799Z,12.30
2023-03-19T07:23:38.068Z,12.20
2023-03-19T07:26:06.483Z,12.39
2023-03-19T07:28:34.575Z,12.38
2023-03-19T07:31:02.620Z,12.33
2023-03-19T07:33:30.704Z,12.13
2023-03-19T07:35:58.975Z,12.19
2023-03-19T07:38:27.024Z,12.35
2023-03-19T07:41:02.504Z,12.28
2023-03-19T07:43:31.528Z,12.24
2023-03-19T07:45:59.879Z,12.11
2023-03-19T07:48:27.870Z,12.16
2023-03-19T07:50:56.191Z,12.30
2023-03-19T07:53:24.648Z,12.34
2023-03-19T07:55:52.864Z,12.40
2023-03-19T07:58:22.117Z,12.50
2023-03-19T08:00:50.116Z,12.43
2023-03-19T08:03:18.157Z,12.28
2023-03-19T08:05:46.616Z,12.51
2023-03-19T08:08:15.291Z,12.52
2023-03-19T08:10:43.468Z,12.29
2023-03-19T08:13:11.504Z,12.44
2023-03-19T08:15:41.126Z,12.69
2023-03-19T08:18:09.236Z,12.55
2023-03-19T08:20:37.381Z,12.64
2023-03-19T08:23:06.147Z,12.78
2023-03-19T08:25:34.453Z,12.55
2023-03-19T08:28:02.749Z,12.56
2023-03-19T08:30:30.851Z,12.46
2023-03-19T08:33:00.526Z,12.37
2023-03-19T08:35:28.620Z,12.55
2023-03-19T08:37:57.100Z,12.73
2023-03-19T08:40:25.229Z,12.87
2023-03-19T08:42:53.598Z,12.77
2023-03-19T08:45:22.052Z,12.81
2023-03-19T08:47:50.552Z,12.83
2023-03-19T08:50:20.215Z,12.86
2023-03-19T08:52:48.396Z,12.85
2023-03-19T08:55:17.256Z,12.90
2023-03-19T08:57:45.273Z,12.78
2023-03-19T09:00:14.690Z,12.89
2023-03-19T09:02:42.560Z,12.83
2023-03-19T09:05:11.131Z,12.96
2023-03-19T09:07:40.416Z,12.91
2023-03-19T09:10:09.401Z,13.01
2023-03-19T09:12:37.416Z,13.15
2023-03-19T09:15:06.737Z,13.06
2023-03-19T09:17:34.739Z,13.04
2023-03-19T09:20:06.110Z,12.99
2023-03-19T09:22:34.400Z,13.05
2023-03-19T09:25:03.812Z,13.16
2023-03-19T09:27:31.669Z,13.21
2023-03-19T09:29:59.854Z,13.14
2023-03-19T09:32:28.248Z,13.16
2023-03-19T09:34:56.554Z,13.21
2023-03-19T09:37:24.780Z,13.19
2023-03-19T09:39:53.047Z,13.24
2023-03-19T09:42:38.051Z,13.33
2023-03-19T09:45:13.569Z,13.44
2023-03-19T09:47:43.420Z,13.31
2023-03-19T09:50:15.751Z,13.45
2023-03-19T09:52:47.122Z,13.57
2023-03-19T09:55:29.424Z,13.68
2023-03-19T09:58:00.976Z,13.45
2023-03-19T10:00:32.339Z,13.21
2023-03-19T10:03:09.121Z,13.27
2023-03-19T10:05:45.951Z,13.22
2023-03-19T10:08:31.991Z,13.41
2023-03-19T10:11:12.368Z,13.25
2023-03-19T10:13:58.421Z,13.33
2023-03-19T10:16:29.012Z,13.39
2023-03-19T10:19:00.478Z,13.44
2023-03-19T10:21:34.248Z,13.44
2023-03-19T10:24:06.620Z,13.52
2023-03-19T10:26:36.461Z,13.50
2023-03-19T10:29:09.428Z,13.24
2023-03-19T10:31:46.286Z,13.35
2023-03-19T10:34:31.414Z,13.49
2023-03-19T10:37:02.231Z,13.32
2023-03-19T10:39:32.558Z,13.33
2023-03-19T10:42:09.817Z,13.38
2023-03-19T10:44:46.974Z,13.49
2023-03-19T10:47:16.649Z,13.31
2023-03-19T10:49:44.553Z,13.29
2023-03-19T10:52:26.274Z,13.42
2023-03-19T10:54:57.594Z,13.02
2023-03-19T10:57:28.637Z,12.97
2023-03-19T11:00:04.229Z,13.03
2023-03-19T11:02:33.555Z,13.03
2023-03-19T11:05:20.447Z,13.25
2023-03-19T11:07:51.549Z,13.20
2023-03-19T11:10:21.759Z,13.25
2023-03-19T11:12:55.988Z,13.09
2023-03-19T11:15:30.040Z,13.06
2023-03-19T11:18:00.362Z,13.02
2023-03-19T11:20:31.730Z,13.24
2023-03-19T11:23:02.864Z,13.21
2023-03-19T11:25:36.911Z,12.88
2023-03-19T11:28:09.941Z,13.03
2023-03-19T11:30:50.906Z,13.11
2023-03-19T11:33:47.987Z,13.03
2023-03-19T11:36:25.154Z,12.89
2023-03-19T11:39:17.561Z,12.91
2023-03-19T11:42:00.334Z,13.03
2023-03-19T11:44:33.988Z,13.15
2023-03-19T11:47:24.613Z,12.93
2023-03-19T11:50:06.459Z,13.01
2023-03-19T11:52:39.268Z,12.96
2023-03-19T11:55:22.211Z,12.85
2023-03-19T11:58:09.220Z,12.88
2023-03-19T12:00:43.807Z,12.59
2023-03-19T12:04:01.695Z,12.86
2023-03-19T12:06:40.560Z,12.85
2023-03-19T12:09:16.662Z,12.78
2023-03-19T12:11:53.545Z,12.54
2023-03-19T12:14:41.532Z,12.62
2023-03-19T12:17:23.985Z,12.71
2023-03-19T12:20:11.952Z,12.81
2023-03-19T12:22:50.669Z,12.70
2023-03-19T12:25:29.906Z,12.82
2023-03-19T12:28:04.322Z,12.72
2023-03-19T12:30:37.526Z,12.92
2023-03-19T12:33:21.395Z,13.00
2023-03-19T12:35:56.618Z,12.84
2023-03-19T12:38:29.163Z,12.70
2023-03-19T12:41:00.942Z,12.79
2023-03-19T12:43:35.297Z,12.61
2023-03-19T12:46:09.470Z,12.59
2023-03-19T12:48:43.695Z,12.53
2023-03-19T12:51:18.533Z,12.49
2023-03-19T12:53:50.246Z,12.51
2023-03-19T12:56:23.597Z,12.25
2023-03-19T12:58:58.794Z,12.29
2023-03-19T13:01:31.554Z,12.53
2023-03-19T13:04:07.313Z,12.49
2023-03-19T13:06:39.968Z,12.45
2023-03-19T13:09:17.916Z,12.63
2023-03-19T13:11:53.546Z,12.67
2023-03-19T13:14:27.684Z,12.72
2023-03-19T13:17:03.820Z,12.56
2023-03-19T13:19:40.077Z,12.55
2023-03-19T13:22:13.495Z,12.49
2023-03-19T13:24:44.562Z,12.43
2023-03-19T13:27:17.256Z,12.35
2023-03-19T13:30:01.953Z,12.48
2023-03-19T13:32:38.665Z,12.42
2023-03-19T13:35:37.284Z,12.62
2023-03-19T13:38:15.504Z,12.50
2023-03-19T13:40:48.833Z,12.57
2023-03-19T13:43:49.114Z,12.54
2023-03-19T13:46:47.082Z,12.82
2023-03-19T13:49:27.385Z,12.79
2023-03-19T13:51:59.746Z,12.76
2023-03-19T13:54:40.413Z,12.54
2023-03-19T13:57:34.649Z,12.41
2023-03-19T14:00:36.403Z,12.44
2023-03-19T14:03:07.301Z,12.33
2023-03-19T14:05:37.673Z,12.50
2023-03-19T14:08:19.461Z,12.69
2023-03-19T14:10:51.356Z,12.69
2023-03-19T14:13:27.286Z,12.11
2023-03-19T14:16:01.638Z,12.14
2023-03-19T14:18:30.724Z,12.02
2023-03-19T14:21:06.465Z,12.00
2023-03-19T14:23:43.212Z,12.30
2023-03-19T14:26:17.855Z,12.37
2023-03-19T14:29:02.504Z,12.47
2023-03-19T14:31:43.658Z,12.56
2023-03-19T14:34:25.759Z,12.52
2023-03-19T14:36:59.921Z,12.53
2023-03-19T14:39:31.434Z,12.45
2023-03-19T14:42:06.181Z,12.47
2023-03-19T14:45:02.931Z,12.67
2023-03-19T14:47:54.589Z,12.67
2023-03-19T14:50:36.779Z,12.83
2023-03-19T14:53:14.787Z,12.93
2023-03-19T14:55:43.700Z,12.88
2023-03-19T14:58:13.418Z,13.04
2023-03-19T15:00:44.832Z,12.85
2023-03-19T15:03:22.964Z,13.00
2023-03-19T15:05:57.750Z,13.03
2023-03-19T15:08:26.616Z,13.03
2023-03-19T15:11:24.155Z,13.00
2023-03-19T15:14:11.951Z,13.07
2023-03-19T15:16:48.522Z,12.83
2023-03-19T15:19:23.434Z,12.83
2023-03-19T15:21:51.388Z,12.95
2023-03-19T15:24:19.969Z,12.70
2023-03-19T15:26:48.136Z,12.73
2023-03-19T15:29:18.837Z,12.74
2023-03-19T15:31:53.851Z,12.52
2023-03-19T15:34:27.789Z,12.56
2023-03-19T15:37:01.090Z,12.38
2023-03-19T15:39:32.802Z,12.33
2023-03-19T15:42:02.173Z,12.53
2023-03-19T15:44:36.453Z,12.59
2023-03-19T15:47:07.332Z,12.69
2023-03-19T15:49:40.783Z,12.62
2023-03-19T15:52:14.097Z,12.67
2023-03-19T15:54:43.002Z,12.69
2023-03-19T15:57:14.885Z,12.56
2023-03-19T15:59:44.786Z,12.50
2023-03-19T16:02:22.882Z,12.53
2023-03-19T16:05:18.240Z,12.41
2023-03-19T16:07:44.444Z,12.56
2023-03-19T16:10:34.178Z,12.67
2023-03-19T16:13:05.474Z,12.63
2023-03-19T16:15:43.638Z,12.70
2023-03-19T16:18:27.374Z,12.65
2023-03-19T16:21:04.330Z,12.62
2023-03-19T16:23:34.754Z,12.53
2023-03-19T16:26:16.984Z,12.50
2023-03-19T16:28:50.068Z,12.60
2023-03-19T16:31:25.846Z,12.58
2023-03-19T16:33:54.467Z,12.68
2023-03-19T16:36:22.901Z,12.65
2023-03-19T16:38:57.174Z,12.56
2023-03-19T16:41:34.557Z,12.68
2023-03-19T16:44:14.216Z,12.64
2023-03-19T16:46:44.466Z,12.54
2023-03-19T16:49:12.910Z,12.68
2023-03-19T16:51:41.337Z,12.63
2023-03-19T16:54:13.862Z,12.78
2023-03-19T16:56:41.968Z,12.77
2023-03-19T16:59:20.764Z,12.82
2023-03-19T17:01:50.176Z,12.77
2023-03-19T17:04:18.508Z,12.73
2023-03-19T17:06:47.093Z,12.65
2023-03-19T17:09:15.534Z,12.63
2023-03-19T17:11:44.497Z,12.76
2023-03-19T17:14:18.046Z,12.78
2023-03-19T17:16:50.734Z,12.70
2023-03-19T17:19:23.137Z,12.61
2023-03-19T17:21:53.867Z,12.48
2023-03-19T17:24:25.054Z,12.45
2023-03-19T17:26:53.969Z,12.43
2023-03-19T17:29:25.023Z,12.44
2023-03-19T17:31:54.779Z,12.04
2023-03-19T17:34:26.611Z,11.95
2023-03-19T17:36:57.149Z,12.12
2023-03-19T17:39:25.997Z,12.05
2023-03-19T17:41:54.874Z,12.05
2023-03-19T17:44:23.321Z,12.10
2023-03-19T17:46:53.339Z,12.04
2023-03-19T17:49:26.148Z,12.13
2023-03-19T17:51:54.105Z,12.08
2023-03-19T17:54:22.721Z,12.14
2023-03-19T17:56:50.727Z,12.24
2023-03-19T17:59:18.908Z,12.24
2023-03-19T18:01:47.974Z,12.07
2023-03-19T18:04:18.521Z,12.07
2023-03-19T18:06:51.812Z,12.16
2023-03-19T18:09:22.628Z,12.23
2023-03-19T18:11:50.834Z,11.99
2023-03-19T18:14:19.233Z,11.98
2023-03-19T18:16:48.104Z,11.86
2023-03-19T18:19:21.525Z,11.84
2023-03-19T18:21:50.764Z,12.00
2023-03-19T18:24:18.801Z,12.03
2023-03-19T18:26:46.821Z,12.14
2023-03-19T18:29:16.382Z,12.22
2023-03-19T18:31:46.355Z,12.13
2023-03-19T18:34:16.679Z,12.25
2023-03-19T18:36:44.832Z,12.38
2023-03-19T18:39:16.241Z,11.98
2023-03-19T18:41:44.590Z,11.95
2023-03-19T18:44:13.793Z,11.87
2023-03-19T18:46:42.731Z,11.68
2023-03-19T18:49:20.825Z,11.71
2023-03-19T18:52:01.708Z,11.85
2023-03-19T18:54:32.817Z,11.87
2023-03-19T18:57:02.119Z,11.94
2023-03-19T18:59:32.614Z,11.87
2023-03-19T19:02:03.472Z,11.66
2023-03-19T19:04:31.639Z,11.56
2023-03-19T19:07:00.242Z,11.58
2023-03-19T19:09:28.107Z,11.14
2023-03-19T19:12:01.050Z,11.13
2023-03-19T19:14:29.368Z,11.18
2023-03-19T19:16:57.810Z,11.24
2023-03-19T19:19:27.625Z,11.38
2023-03-19T19:21:56.035Z,11.17
2023-03-19T19:24:23.920Z,11.11
2023-03-19T19:26:54.095Z,11.13
2023-03-19T19:29:26.009Z,11.38
2023-03-19T19:31:54.587Z,11.22
2023-03-19T19:34:22.916Z,11.28
2023-03-19T19:36:51.229Z,11.39
2023-03-19T19:39:19.385Z,11.38
2023-03-19T19:41:47.921Z,11.42
2023-03-19T19:44:19.857Z,11.44
2023-03-19T19:46:53.167Z,11.44
2023-03-19T19:49:24.770Z,11.44
2023-03-19T19:51:52.740Z,11.12
2023-03-19T19:54:21.738Z,11.17
2023-03-19T19:56:49.865Z,11.17
2023-03-19T19:59:18.071Z,11.25
2023-03-19T20:01:46.125Z,11.31
2023-03-19T20:04:16.050Z,11.24
2023-03-19T20:06:43.951Z,11.31
2023-03-19T20:09:12.030Z,10.79
2023-03-19T20:11:40.079Z,10.73
2023-03-19T20:14:14.427Z,10.86
2023-03-19T20:16:42.449Z,10.94
2023-03-19T20:19:20.130Z,10.77
2023-03-19T20:21:48.052Z,10.60
2023-03-19T20:24:16.835Z,10.67
2023-03-19T20:26:45.148Z,10.71
2023-03-19T20:29:15.934Z,10.60
2023-03-19T20:31:46.957Z,10.76
2023-03-19T20:34:25.535Z,10.81
2023-03-19T20:37:01.901Z,10.82
2023-03-19T20:39:29.863Z,10.62
2023-03-19T20:41:57.930Z,10.74
2023-03-19T20:44:26.733Z,10.74
2023-03-19T20:46:54.703Z,10.79
2023-03-19T20:49:22.875Z,10.88
2023-03-19T20:51:50.745Z,10.89
2023-03-19T20:54:20.156Z,10.93
2023-03-19T20:56:48.664Z,10.88
2023-03-19T20:59:16.839Z,10.88
2023-03-19T21:01:44.906Z,10.91
2023-03-19T21:04:19.712Z,11.12
2023-03-19T21:06:53.284Z,11.26
2023-03-19T21:09:25.575Z,11.32
2023-03-19T21:11:53.604Z,11.31
2023-03-19T21:14:23.348Z,11.26
2023-03-19T21:16:51.514Z,10.92
2023-03-19T21:19:19.956Z,10.98
2023-03-19T21:21:48.223Z,10.98
2023-03-19T21:24:20.113Z,11.05
2023-03-19T21:26:50.013Z,11.18
2023-03-19T21:29:22.588Z,11.26
2023-03-19T21:31:51.222Z,11.36
2023-03-19T21:34:19.270Z,11.17
2023-03-19T21:36:47.671Z,10.93
2023-03-19T21:39:16.095Z,10.89
2023-03-19T21:41:44.162Z,11.13
2023-03-19T21:44:16.072Z,10.92
2023-03-19T21:46:47.743Z,10.80
2023-03-19T21:49:16.231Z,10.63
2023-03-19T21:51:44.436Z,10.84
2023-03-19T21:54:12.340Z,10.87
2023-03-19T21:56:42.643Z,10.77
2023-03-19T21:59:15.906Z,10.85
2023-03-19T22:01:43.970Z,10.93
2023-03-19T22:04:11.933Z,11.02
2023-03-19T22:06:40.103Z,11.07
2023-03-19T22:09:08.061Z,11.01
2023-03-19T22:11:38.379Z,10.99
2023-03-19T22:14:09.051Z,10.93
2023-03-19T22:16:38.560Z,10.99
2023-03-19T22:19:06.585Z,11.00
2023-03-19T22:21:35.673Z,11.05
2023-03-19T22:24:03.711Z,11.03
2023-03-19T22:26:34.731Z,11.07
2023-03-19T22:29:05.358Z,11.00
2023-03-19T22:31:34.058Z,10.95
2023-03-19T22:34:03.629Z,10.88
2023-03-19T22:36:31.688Z,10.97
2023-03-19T22:38:59.609Z,10.64
2023-03-19T22:41:31.732Z,10.55
2023-03-19T22:44:01.611Z,10.45
2023-03-19T22:46:30.513Z,10.22
2023-03-19T22:48:58.473Z,10.14
2023-03-19T22:51:28.672Z,10.19
2023-03-19T22:53:56.690Z,10.04
2023-03-19T22:56:24.677Z,9.86
2023-03-19T22:58:52.992Z,9.97
2023-03-19T23:01:35.844Z,10.21
2023-03-19T23:04:17.615Z,10.25
2023-03-19T23:06:46.933Z,10.17
2023-03-19T23:09:17.004Z,10.31
2023-03-19T23:11:45.059Z,10.25
2023-03-19T23:14:26.339Z,10.28
2023-03-19T23:19:29.103Z,10.41
2023-03-19T23:21:59.231Z,10.44
2023-03-19T23:24:27.785Z,10.54
2023-03-19T23:26:57.818Z,10.35
2023-03-19T23:29:29.823Z,10.35
2023-03-19T23:31:58.877Z,10.52
2023-03-19T23:34:28.405Z,10.64
2023-03-19T23:36:59.921Z,10.75
2023-03-19T23:39:28.415Z,10.58
2023-03-19T23:41:58.874Z,10.48
2023-03-19T23:44:29.206Z,10.31
2023-03-19T23:47:02.458Z,10.23
2023-03-19T23:49:32.960Z,9.91
2023-03-19T23:52:04.514Z,9.95
2023-03-19T23:54:34.827Z,9.96
2023-03-19T23:57:06.586Z,10.11
2023-03-19T23:59:36.723Z,10.22
